createdAt,value
2023-05-22T00:01:34.053Z,100.00
2023-05-22T00:04:02.985Z,100.00
2023-05-22T00:06:30.213Z,100.00
2023-05-22T00:08:57.274Z,100.00
2023-05-22T00:11:24.248Z,100.00
2023-05-22T00:13:51.273Z,100.00
2023-05-22T00:16:18.082Z,100.00
2023-05-22T00:18:45.044Z,100.00
2023-05-22T00:21:12.042Z,100.00
2023-05-22T00:23:38.915Z,100.00
2023-05-22T00:26:06.052Z,100.00
2023-05-22T00:28:32.966Z,100.00
2023-05-22T00:31:00.357Z,100.00
2023-05-22T00:33:27.464Z,100.00
2023-05-22T00:35:54.288Z,100.00
2023-05-22T00:38:36.632Z,100.00
2023-05-22T00:41:06.426Z,100.00
2023-05-22T00:43:34.654Z,100.00
2023-05-22T00:46:01.856Z,100.00
2023-05-22T00:48:28.736Z,100.00
2023-05-22T00:50:58.434Z,100.00
2023-05-22T00:53:29.820Z,100.00
2023-05-22T00:55:59.007Z,100.00
2023-05-22T00:58:27.252Z,100.00
2023-05-22T01:00:55.485Z,100.00
2023-05-22T01:03:26.712Z,100.00
2023-05-22T01:05:54.850Z,100.00
2023-05-22T01:08:21.966Z,100.00
2023-05-22T01:11:02.711Z,100.00
2023-05-22T01:13:46.854Z,100.00
2023-05-22T01:16:37.594Z,100.00
2023-05-22T01:19:36.812Z,100.00
2023-05-22T01:22:59.357Z,100.00
2023-05-22T01:25:34.822Z,100.00
2023-05-22T01:28:30.563Z,100.00
2023-05-22T01:31:02.656Z,100.00
2023-05-22T01:33:41.977Z,100.00
2023-05-22T01:36:14.385Z,100.00
2023-05-22T01:38:43.061Z,100.00
2023-05-22T01:41:10.739Z,100.00
2023-05-22T01:43:37.899Z,100.00
2023-05-22T01:46:06.394Z,100.00
2023-05-22T01:48:33.826Z,100.00
2023-05-22T01:51:11.858Z,100.00
2023-05-22T01:54:10.669Z,100.00
2023-05-22T01:57:12.958Z,100.00
2023-05-22T01:59:48.545Z,100.00
2023-05-22T02:02:19.796Z,100.00
2023-05-22T02:05:00.838Z,100.00
2023-05-22T02:07:29.587Z,100.00
2023-05-22T02:09:58.794Z,100.00
2023-05-22T02:12:26.172Z,100.00
2023-05-22T02:14:53.976Z,100.00
2023-05-22T02:17:22.232Z,100.00
2023-05-22T02:19:49.160Z,100.00
2023-05-22T02:22:16.062Z,100.00
2023-05-22T02:24:49.894Z,100.00
2023-05-22T02:27:22.688Z,100.00
2023-05-22T02:29:49.430Z,100.00
2023-05-22T02:32:16.692Z,100.00
2023-05-22T02:34:43.953Z,100.00
2023-05-22T02:37:10.773Z,100.00
2023-05-22T02:39:37.622Z,100.00
2023-05-22T02:42:05.538Z,100.00
2023-05-22T02:44:32.314Z,100.00
2023-05-22T02:46:59.169Z,100.00
2023-05-22T02:49:26.074Z,100.00
2023-05-22T02:51:52.847Z,100.00
2023-05-22T02:54:23.088Z,100.00
2023-05-22T02:56:52.677Z,100.00
2023-05-22T02:59:19.454Z,100.00
2023-05-22T03:01:48.373Z,100.00
2023-05-22T03:04:15.304Z,100.00
2023-05-22T03:06:45.495Z,100.00
2023-05-22T03:09:12.661Z,100.00
2023-05-22T03:11:39.560Z,100.00
2023-05-22T03:14:06.342Z,100.00
2023-05-22T03:16:34.338Z,100.00
2023-05-22T03:19:09.214Z,100.00
2023-05-22T03:21:36.582Z,100.00
2023-05-22T03:24:04.416Z,100.00
2023-05-22T03:26:31.411Z,100.00
2023-05-22T03:28:58.517Z,100.00
2023-05-22T03:31:28.170Z,100.00
2023-05-22T03:33:55.275Z,100.00
2023-05-22T03:36:23.084Z,100.00
2023-05-22T03:38:49.981Z,100.00
2023-05-22T03:41:17.711Z,100.00
2023-05-22T03:43:45.619Z,100.00
2023-05-22T03:46:12.827Z,100.00
2023-05-22T03:48:39.788Z,100.00
2023-05-22T03:51:06.824Z,100.00
2023-05-22T03:53:33.657Z,100.00
2023-05-22T03:56:00.454Z,100.00
2023-05-22T03:58:27.554Z,100.00
2023-05-22T04:00:58.661Z,100.00
2023-05-22T04:03:25.849Z,100.00
2023-05-22T04:05:53.033Z,100.00
2023-05-22T04:08:20.527Z,100.00
2023-05-22T04:10:48.446Z,100.00
2023-05-22T04:13:17.190Z,100.00
2023-05-22T04:15:46.561Z,100.00
2023-05-22T04:18:14.324Z,100.00
2023-05-22T04:20:44.743Z,100.00
2023-05-22T04:23:11.678Z,100.00
2023-05-22T04:25:44.739Z,100.00
2023-05-22T04:28:20.078Z,100.00
2023-05-22T04:30:46.904Z,100.00
2023-05-22T04:33:13.796Z,100.00
2023-05-22T04:35:40.927Z,100.00
2023-05-22T04:38:08.026Z,100.00
2023-05-22T04:40:35.261Z,100.00
2023-05-22T04:43:03.734Z,100.00
2023-05-22T04:45:31.322Z,100.00
2023-05-22T04:48:02.986Z,100.00
2023-05-22T04:50:32.887Z,100.00
2023-05-22T04:53:00.507Z,100.00
2023-05-22T04:55:33.697Z,100.00
2023-05-22T04:58:00.564Z,100.00
2023-05-22T05:00:28.803Z,100.00
2023-05-22T05:03:00.377Z,100.00
2023-05-22T05:05:27.517Z,100.00
2023-05-22T05:07:54.597Z,100.00
2023-05-22T05:10:21.693Z,100.00
2023-05-22T05:12:48.651Z,100.00
2023-05-22T05:15:18.737Z,100.00
2023-05-22T05:17:46.327Z,100.00
2023-05-22T05:20:14.596Z,100.00
2023-05-22T05:22:43.924Z,100.00
2023-05-22T05:25:11.802Z,100.00
2023-05-22T05:27:38.908Z,100.00
2023-05-22T05:30:09.241Z,100.00
2023-05-22T05:32:36.276Z,100.00
2023-05-22T05:35:03.281Z,100.00
2023-05-22T05:37:30.105Z,100.00
2023-05-22T05:39:56.913Z,100.00
2023-05-22T05:42:23.780Z,100.00
2023-05-22T05:44:50.584Z,100.00
2023-05-22T05:47:17.756Z,100.00
2023-05-22T05:49:44.545Z,100.00
2023-05-22T05:52:11.785Z,100.00
2023-05-22T05:54:39.000Z,100.00
2023-05-22T05:57:06.791Z,100.00
2023-05-22T05:59:33.624Z,100.00
2023-05-22T06:02:00.412Z,100.00
2023-05-22T06:04:28.238Z,100.00
2023-05-22T06:06:58.523Z,100.00
2023-05-22T06:09:25.397Z,100.00
2023-05-22T06:11:54.746Z,100.00
2023-05-22T06:14:22.476Z,100.00
2023-05-22T06:16:49.660Z,100.00
2023-05-22T06:19:16.878Z,100.00
2023-05-22T06:21:43.843Z,100.00
2023-05-22T06:24:11.063Z,100.00
2023-05-22T06:26:37.980Z,100.00
2023-05-22T06:29:05.830Z,100.00
2023-05-22T06:31:35.215Z,100.00
2023-05-22T06:34:02.295Z,100.00
2023-05-22T06:36:29.153Z,100.00
2023-05-22T06:38:55.915Z,100.00
2023-05-22T06:41:23.087Z,100.00
2023-05-22T06:43:49.850Z,100.00
2023-05-22T06:46:17.103Z,100.00
2023-05-22T06:48:44.061Z,100.00
2023-05-22T06:51:12.726Z,100.00
2023-05-22T06:53:39.620Z,100.00
2023-05-22T06:56:06.667Z,100.00
2023-05-22T06:58:33.490Z,100.00
2023-05-22T07:01:00.692Z,100.00
2023-05-22T07:03:27.704Z,100.00
2023-05-22T07:05:57.561Z,100.00
2023-05-22T07:08:28.322Z,100.00
2023-05-22T07:10:56.686Z,100.00
2023-05-22T07:13:24.770Z,100.00
2023-05-22T07:15:54.246Z,100.00
2023-05-22T07:18:21.194Z,100.00
2023-05-22T07:20:48.018Z,100.00
2023-05-22T07:23:14.890Z,100.00
2023-05-22T07:25:43.047Z,100.00
2023-05-22T07:28:10.644Z,100.00
2023-05-22T07:30:38.937Z,100.00
2023-05-22T07:33:06.810Z,99.93
2023-05-22T07:35:34.580Z,98.34
2023-05-22T07:38:01.453Z,97.18
2023-05-22T07:40:28.422Z,97.26
2023-05-22T07:42:55.848Z,96.88
2023-05-22T07:45:22.719Z,95.88
2023-05-22T07:47:52.233Z,94.94
2023-05-22T07:50:21.104Z,95.16
2023-05-22T07:52:47.933Z,94.93
2023-05-22T07:55:14.846Z,95.56
2023-05-22T07:57:43.547Z,94.38
2023-05-22T08:00:13.663Z,95.30
2023-05-22T08:02:41.707Z,93.33
2023-05-22T08:05:10.109Z,93.58
2023-05-22T08:07:37.341Z,93.21
2023-05-22T08:10:17.125Z,91.49
2023-05-22T08:12:43.961Z,90.84
2023-05-22T08:15:11.783Z,89.79
2023-05-22T08:17:39.080Z,88.80
2023-05-22T08:20:07.399Z,88.21
2023-05-22T08:22:35.358Z,86.16
2023-05-22T08:25:02.461Z,86.78
2023-05-22T08:27:29.316Z,82.22
2023-05-22T08:29:56.276Z,83.44
2023-05-22T08:32:23.250Z,86.12
2023-05-22T08:34:50.471Z,84.54
2023-05-22T08:37:17.362Z,83.71
2023-05-22T08:39:44.222Z,78.42
2023-05-22T08:42:11.113Z,83.88
2023-05-22T08:44:38.262Z,83.46
2023-05-22T08:47:09.864Z,76.33
2023-05-22T08:49:40.023Z,80.69
2023-05-22T08:52:51.099Z,80.07
2023-05-22T08:55:19.721Z,80.83
2023-05-22T08:57:47.314Z,73.96
2023-05-22T09:00:15.592Z,74.30
2023-05-22T09:02:44.039Z,81.63
2023-05-22T09:05:12.165Z,77.39
2023-05-22T09:07:40.761Z,83.15
2023-05-22T09:10:08.397Z,81.02
2023-05-22T09:12:35.368Z,80.92
2023-05-22T09:15:10.999Z,79.13
2023-05-22T09:17:41.443Z,76.94
2023-05-22T09:20:13.281Z,79.45
2023-05-22T09:22:40.348Z,76.10
2023-05-22T09:25:08.408Z,78.33
2023-05-22T09:27:35.259Z,77.63
2023-05-22T09:30:02.182Z,76.20
2023-05-22T09:32:32.281Z,74.22
2023-05-22T09:35:06.800Z,74.01
2023-05-22T09:37:36.776Z,72.60
2023-05-22T09:40:11.556Z,73.53
2023-05-22T09:42:38.448Z,73.64
2023-05-22T09:45:08.136Z,72.84
2023-05-22T09:47:36.182Z,71.68
2023-05-22T09:50:07.068Z,70.17
2023-05-22T09:52:37.392Z,68.93
2023-05-22T09:55:08.697Z,72.36
2023-05-22T09:57:44.993Z,70.44
2023-05-22T10:00:15.644Z,71.00
2023-05-22T10:02:54.300Z,69.35
2023-05-22T10:05:24.918Z,66.55
2023-05-22T10:07:57.237Z,69.87
2023-05-22T10:10:25.639Z,68.39
2023-05-22T10:13:04.608Z,62.53
2023-05-22T10:15:32.371Z,59.63
2023-05-22T10:18:00.704Z,66.75
2023-05-22T10:20:29.898Z,66.57
2023-05-22T10:22:57.251Z,61.47
2023-05-22T10:25:24.065Z,63.48
2023-05-22T10:27:55.738Z,59.32
2023-05-22T10:30:41.116Z,58.23
2023-05-22T10:33:33.781Z,59.76
2023-05-22T10:36:32.663Z,56.95
2023-05-22T10:39:35.188Z,60.50
2023-05-22T10:42:02.262Z,60.18
2023-05-22T10:44:29.314Z,58.43
2023-05-22T10:46:56.187Z,53.42
2023-05-22T10:49:24.387Z,50.08
2023-05-22T10:51:57.096Z,54.19
2023-05-22T10:54:46.263Z,49.49
2023-05-22T10:57:18.633Z,54.72
2023-05-22T10:59:48.712Z,48.87
2023-05-22T11:02:33.612Z,49.42
2023-05-22T11:05:18.868Z,51.64
2023-05-22T11:07:45.808Z,51.86
2023-05-22T11:10:12.852Z,53.65
2023-05-22T11:12:41.384Z,57.19
2023-05-22T11:15:11.009Z,50.21
2023-05-22T11:17:51.622Z,53.12
2023-05-22T11:20:24.760Z,52.25
2023-05-22T11:22:59.677Z,48.87
2023-05-22T11:25:28.772Z,44.70
2023-05-22T11:27:57.595Z,49.17
2023-05-22T11:30:30.362Z,45.44
2023-05-22T11:33:00.067Z,43.61
2023-05-22T11:35:28.250Z,40.64
2023-05-22T11:37:56.382Z,38.67
2023-05-22T11:40:26.105Z,43.65
2023-05-22T11:42:56.191Z,39.93
2023-05-22T11:45:23.952Z,41.03
2023-05-22T11:47:51.483Z,43.48
2023-05-22T11:52:49.355Z,38.33
2023-05-22T11:55:16.360Z,36.78
2023-05-22T11:57:44.362Z,36.74
2023-05-22T12:00:11.991Z,36.74
2023-05-22T12:02:44.966Z,34.01
2023-05-22T12:05:11.924Z,37.04
2023-05-22T12:07:39.076Z,33.76
2023-05-22T12:10:07.252Z,34.52
2023-05-22T12:12:34.412Z,33.48
2023-05-22T12:15:01.355Z,40.08
2023-05-22T12:17:28.949Z,36.09
2023-05-22T12:19:57.699Z,33.54
2023-05-22T12:22:26.559Z,33.07
2023-05-22T12:24:53.370Z,36.37
2023-05-22T12:27:20.424Z,36.36
2023-05-22T12:29:47.271Z,38.49
2023-05-22T12:32:15.766Z,39.05
2023-05-22T12:34:47.756Z,40.35
2023-05-22T12:37:28.028Z,41.13
2023-05-22T12:40:01.320Z,44.75
2023-05-22T12:42:28.978Z,42.29
2023-05-22T12:44:58.070Z,44.77
2023-05-22T12:47:25.503Z,45.49
2023-05-22T12:49:53.148Z,46.60
2023-05-22T12:52:20.169Z,46.83
2023-05-22T12:54:47.163Z,46.98
2023-05-22T12:57:14.029Z,46.98
2023-05-22T12:59:47.406Z,46.98
2023-05-22T13:02:14.998Z,45.85
2023-05-22T13:04:42.268Z,46.26
2023-05-22T13:07:09.121Z,46.15
2023-05-22T13:09:35.921Z,45.88
2023-05-22T13:12:02.773Z,46.77
2023-05-22T13:14:29.704Z,47.50
2023-05-22T13:16:56.566Z,49.06
2023-05-22T13:19:23.404Z,48.01
2023-05-22T13:21:50.237Z,49.13
2023-05-22T13:24:17.069Z,48.32
2023-05-22T13:26:43.827Z,48.63
2023-05-22T13:29:10.954Z,48.14
2023-05-22T13:31:37.973Z,48.39
2023-05-22T13:34:05.422Z,49.01
2023-05-22T13:36:34.288Z,47.90
2023-05-22T13:39:01.165Z,47.04
2023-05-22T13:41:28.234Z,45.84
2023-05-22T13:43:55.200Z,47.17
2023-05-22T13:46:22.588Z,48.44
2023-05-22T13:48:49.528Z,47.49
2023-05-22T13:51:16.776Z,47.30
2023-05-22T13:53:43.635Z,47.21
2023-05-22T13:56:10.602Z,46.87
2023-05-22T13:58:37.402Z,46.35
2023-05-22T14:01:04.297Z,46.49
2023-05-22T14:03:31.292Z,46.79
2023-05-22T14:05:58.140Z,45.86
2023-05-22T14:08:25.393Z,46.33
2023-05-22T14:10:52.517Z,46.60
2023-05-22T14:13:19.536Z,47.91
2023-05-22T14:15:47.096Z,44.65
2023-05-22T14:18:16.508Z,45.18
2023-05-22T14:20:44.686Z,42.77
2023-05-22T14:23:13.382Z,40.63
2023-05-22T14:25:44.450Z,39.62
2023-05-22T14:28:12.796Z,38.51
2023-05-22T14:30:40.515Z,38.35
2023-05-22T14:33:07.795Z,38.97
2023-05-22T14:35:35.036Z,39.15
2023-05-22T14:38:02.060Z,37.38
2023-05-22T14:40:29.050Z,35.50
2023-05-22T14:42:55.975Z,36.47
2023-05-22T14:45:23.214Z,37.25
2023-05-22T14:47:50.184Z,39.16
2023-05-22T14:50:20.260Z,38.41
2023-05-22T14:52:49.314Z,37.84
2023-05-22T14:55:17.394Z,37.01
2023-05-22T14:57:44.624Z,38.16
2023-05-22T15:00:12.370Z,36.76
2023-05-22T15:02:40.060Z,36.80
2023-05-22T15:05:07.791Z,38.68
2023-05-22T15:07:43.880Z,37.02
2023-05-22T15:10:13.252Z,36.04
2023-05-22T15:12:40.380Z,34.87
2023-05-22T15:15:08.341Z,33.69
2023-05-22T15:17:35.540Z,34.26
2023-05-22T15:20:02.533Z,35.20
2023-05-22T15:22:29.293Z,35.64
2023-05-22T15:25:15.155Z,34.58
2023-05-22T15:27:42.879Z,35.48
2023-05-22T15:30:10.265Z,34.97
2023-05-22T15:32:38.192Z,35.06
2023-05-22T15:35:06.883Z,35.40
2023-05-22T15:37:34.073Z,35.60
2023-05-22T15:40:03.479Z,35.19
2023-05-22T15:42:31.011Z,35.28
2023-05-22T15:45:00.189Z,36.98
2023-05-22T15:47:27.439Z,37.58
2023-05-22T15:49:54.256Z,39.08
2023-05-22T15:52:23.336Z,39.09
2023-05-22T15:54:51.284Z,37.35
2023-05-22T15:57:18.136Z,40.11
2023-05-22T15:59:47.090Z,38.68
2023-05-22T16:02:14.447Z,40.88
2023-05-22T16:04:41.375Z,42.37
2023-05-22T16:07:08.174Z,41.01
2023-05-22T16:09:36.003Z,45.48
2023-05-22T16:12:04.309Z,47.40
2023-05-22T16:14:31.365Z,45.94
2023-05-22T16:16:58.224Z,46.77
2023-05-22T16:19:25.145Z,47.00
2023-05-22T16:21:52.631Z,47.12
2023-05-22T16:24:19.466Z,47.51
2023-05-22T16:26:46.307Z,48.34
2023-05-22T16:29:15.030Z,48.45
2023-05-22T16:31:42.027Z,49.04
2023-05-22T16:34:08.992Z,49.35
2023-05-22T16:36:36.008Z,49.48
2023-05-22T16:39:02.940Z,49.98
2023-05-22T16:41:30.061Z,53.26
2023-05-22T16:43:56.933Z,62.49
2023-05-22T16:46:23.797Z,72.58
2023-05-22T16:48:50.979Z,80.91
2023-05-22T16:51:17.841Z,92.22
2023-05-22T16:53:46.471Z,94.99
2023-05-22T16:56:14.672Z,100.00
2023-05-22T16:58:41.468Z,100.00
2023-05-22T17:01:08.840Z,100.00
2023-05-22T17:03:36.118Z,100.00
2023-05-22T17:06:03.236Z,100.00
2023-05-22T17:08:30.188Z,100.00
2023-05-22T17:10:59.777Z,100.00
2023-05-22T17:13:27.195Z,100.00
2023-05-22T17:15:54.009Z,100.00
2023-05-22T17:18:21.552Z,100.00
2023-05-22T17:20:53.976Z,100.00
2023-05-22T17:23:21.466Z,100.00
2023-05-22T17:25:48.616Z,100.00
2023-05-22T17:28:15.571Z,100.00
2023-05-22T17:30:45.093Z,100.00
2023-05-22T17:33:12.710Z,100.00
2023-05-22T17:35:39.692Z,100.00
2023-05-22T17:38:10.659Z,100.00
2023-05-22T17:40:44.631Z,100.00
2023-05-22T17:43:13.554Z,100.00
2023-05-22T17:45:40.948Z,100.00
2023-05-22T17:48:07.982Z,100.00
2023-05-22T17:50:35.266Z,100.00
2023-05-22T17:53:02.154Z,100.00
2023-05-22T17:55:28.962Z,100.00
2023-05-22T17:57:56.121Z,100.00
2023-05-22T18:00:23.081Z,100.00
2023-05-22T18:02:50.082Z,100.00
2023-05-22T18:05:17.089Z,100.00
2023-05-22T18:07:43.948Z,100.00
2023-05-22T18:10:11.132Z,100.00
2023-05-22T18:12:38.649Z,100.00
2023-05-22T18:15:08.470Z,100.00
2023-05-22T18:17:35.633Z,100.00
2023-05-22T18:20:02.778Z,100.00
2023-05-22T18:22:29.590Z,100.00
2023-05-22T18:24:56.587Z,100.00
2023-05-22T18:27:23.328Z,100.00
2023-05-22T18:29:51.606Z,100.00
2023-05-22T18:32:24.861Z,100.00
2023-05-22T18:34:52.038Z,100.00
2023-05-22T18:37:19.473Z,100.00
2023-05-22T18:39:47.316Z,100.00
2023-05-22T18:42:14.943Z,100.00
2023-05-22T18:44:41.988Z,100.00
2023-05-22T18:47:09.017Z,100.00
2023-05-22T18:49:36.104Z,100.00
2023-05-22T18:52:03.263Z,100.00
2023-05-22T18:54:30.084Z,100.00
2023-05-22T18:56:57.027Z,100.00
2023-05-22T18:59:23.914Z,100.00
2023-05-22T19:01:50.944Z,100.00
2023-05-22T19:04:17.791Z,100.00
2023-05-22T19:06:47.691Z,100.00
2023-05-22T19:09:14.661Z,100.00
2023-05-22T19:11:41.583Z,100.00
2023-05-22T19:14:08.382Z,100.00
2023-05-22T19:16:38.161Z,100.00
2023-05-22T19:19:09.040Z,100.00
2023-05-22T19:21:35.849Z,100.00
2023-05-22T19:24:03.229Z,100.00
2023-05-22T19:26:30.005Z,100.00
2023-05-22T19:28:59.418Z,100.00
2023-05-22T19:31:29.818Z,100.00
2023-05-22T19:33:56.879Z,100.00
2023-05-22T19:36:23.710Z,100.00
2023-05-22T19:38:52.537Z,100.00
2023-05-22T19:41:23.982Z,100.00
2023-05-22T19:43:51.751Z,100.00
2023-05-22T19:46:18.698Z,100.00
2023-05-22T19:48:45.853Z,100.00
2023-05-22T19:51:16.154Z,100.00
2023-05-22T19:53:43.954Z,100.00
2023-05-22T19:56:10.768Z,100.00
2023-05-22T19:58:38.066Z,100.00
2023-05-22T20:01:04.953Z,100.00
2023-05-22T20:03:31.803Z,100.00
2023-05-22T20:06:01.119Z,100.00
2023-05-22T20:08:28.430Z,100.00
2023-05-22T20:10:55.630Z,100.00
2023-05-22T20:13:22.620Z,100.00
2023-05-22T20:15:51.163Z,100.00
2023-05-22T20:18:18.513Z,100.00
2023-05-22T20:20:45.407Z,100.00
2023-05-22T20:23:12.553Z,100.00
2023-05-22T20:25:39.688Z,100.00
2023-05-22T20:28:06.796Z,100.00
2023-05-22T20:30:33.652Z,100.00
2023-05-22T20:33:00.665Z,100.00
2023-05-22T20:35:30.422Z,100.00
2023-05-22T20:38:03.143Z,100.00
2023-05-22T20:40:32.693Z,100.00
2023-05-22T20:43:02.528Z,100.00
2023-05-22T20:45:33.075Z,100.00
2023-05-22T20:48:00.734Z,100.00
2023-05-22T20:50:27.628Z,100.00
2023-05-22T20:52:54.525Z,100.00
2023-05-22T20:55:21.488Z,100.00
2023-05-22T20:57:50.444Z,100.00
2023-05-22T21:00:17.778Z,100.00
2023-05-22T21:02:44.688Z,100.00
2023-05-22T21:05:17.608Z,100.00
2023-05-22T21:07:44.480Z,100.00
2023-05-22T21:10:11.476Z,100.00
2023-05-22T21:12:38.321Z,100.00
2023-05-22T21:15:06.014Z,100.00
2023-05-22T21:17:32.820Z,100.00
2023-05-22T21:19:59.620Z,100.00
2023-05-22T21:22:26.445Z,100.00
2023-05-22T21:24:53.337Z,100.00
2023-05-22T21:27:20.191Z,100.00
2023-05-22T21:29:47.287Z,100.00
2023-05-22T21:32:16.812Z,100.00
2023-05-22T21:34:43.756Z,100.00
2023-05-22T21:37:11.367Z,100.00
2023-05-22T21:39:38.175Z,100.00
2023-05-22T21:42:05.799Z,100.00
2023-05-22T21:44:32.835Z,100.00
2023-05-22T21:47:01.079Z,100.00
2023-05-22T21:49:28.002Z,100.00
2023-05-22T21:51:56.961Z,100.00
2023-05-22T21:54:23.812Z,100.00
2023-05-22T21:56:50.624Z,100.00
2023-05-22T21:59:17.449Z,100.00
2023-05-22T22:01:44.642Z,100.00
2023-05-22T22:04:11.542Z,100.00
2023-05-22T22:06:41.091Z,100.00
2023-05-22T22:09:09.081Z,100.00
2023-05-22T22:11:36.097Z,100.00
2023-05-22T22:14:04.014Z,100.00
2023-05-22T22:16:35.399Z,100.00
2023-05-22T22:19:03.325Z,100.00
2023-05-22T22:21:30.584Z,100.00
2023-05-22T22:23:57.416Z,100.00
2023-05-22T22:26:31.153Z,100.00
2023-05-22T22:28:57.941Z,100.00
2023-05-22T22:31:25.385Z,100.00
2023-05-22T22:33:52.237Z,100.00
2023-05-22T22:36:19.094Z,100.00
2023-05-22T22:38:45.975Z,100.00
2023-05-22T22:41:12.878Z,100.00
2023-05-22T22:43:39.644Z,100.00
2023-05-22T22:46:06.687Z,100.00
2023-05-22T22:48:33.730Z,100.00
2023-05-22T22:51:00.661Z,100.00
2023-05-22T22:53:27.598Z,100.00
2023-05-22T22:55:57.033Z,100.00
2023-05-22T22:58:24.106Z,100.00
2023-05-22T23:00:50.959Z,100.00
2023-05-22T23:03:17.813Z,100.00
2023-05-22T23:05:45.127Z,100.00
2023-05-22T23:08:12.856Z,100.00
2023-05-22T23:10:39.734Z,100.00
2023-05-22T23:13:06.667Z,100.00
2023-05-22T23:15:34.097Z,100.00
2023-05-22T23:18:07.105Z,100.00
2023-05-22T23:20:33.931Z,100.00
2023-05-22T23:23:00.729Z,100.00
2023-05-22T23:25:27.520Z,100.00
2023-05-22T23:27:54.297Z,100.00
2023-05-22T23:30:21.169Z,100.00
2023-05-22T23:32:48.277Z,100.00
2023-05-22T23:35:15.235Z,100.00
2023-05-22T23:37:42.146Z,100.00
2023-05-22T23:40:09.606Z,100.00
2023-05-22T23:42:36.434Z,100.00
2023-05-22T23:45:04.175Z,100.00
2023-05-22T23:47:31.573Z,100.00
2023-05-22T23:49:59.593Z,100.00
2023-05-22T23:52:26.990Z,100.00
2023-05-22T23:54:53.892Z,100.00
2023-05-22T23:57:20.792Z,100.00
2023-05-22T23:59:48.047Z,100.00
